Time;durP1;ratioP1;P1;durP2;ratioP2;P2;SDS_P1;SDS_P2;PMS_P1;PMS_P2;Temp;Humidity;BMP_temperature;BMP_pressure;BME280_temperature;BME280_humidity;BME280_pressure;Samples;Min_cycle;Max_cycle;Signal;HPM_P1;HPM_P2
2023/07/17 00:02:02;;;;;;;;;;;;;;;25.70;48.94;98984.19;5092164;28;19951;-46
2023/07/17 00:04:28;;;;;;;;;;;;;;;25.83;48.58;98993.38;5090871;28;20359;-46
2023/07/17 00:06:54;;;;;;;;;;;;;;;25.71;48.24;98991.94;5092102;28;19919;-46
2023/07/17 00:09:19;;;;;;;;;;;;;;;25.62;48.24;98996.38;5092591;28;19916;-46
2023/07/17 00:11:45;;;;;;;;;;;;;;;25.29;48.16;98990.97;5094858;28;19916;-46
2023/07/17 00:14:10;;;;;;;;;;;;;;;25.08;48.86;98984.22;5096157;28;19912;-46
2023/07/17 00:16:36;;;;;;;;;;;;;;;25.12;48.57;98994.09;5096107;28;19916;-46
2023/07/17 00:19:01;;;;;;;;;;;;;;;25.14;48.41;98987.66;5094830;28;19965;-46
2023/07/17 00:21:27;;;;;;;;;;;;;;;25.29;48.69;98984.75;5094673;28;19912;-46
2023/07/17 00:23:52;;;;;;;;;;;;;;;25.45;48.45;98980.75;5095978;28;19916;-46
2023/07/17 00:26:17;;;;;;;;;;;;;;;25.73;48.20;98988.16;5094627;28;19919;-46
2023/07/17 00:28:43;;;;;;;;;;;;;;;25.99;47.80;98986.69;5094615;28;20385;-46
2023/07/17 00:31:08;;;;;;;;;;;;;;;26.02;46.45;98990.69;5096014;28;19911;-46
2023/07/17 00:33:34;;;;;;;;;;;;;;;25.77;46.58;98986.50;5095814;28;19923;-46
2023/07/17 00:35:59;;;;;;;;;;;;;;;25.45;46.83;98982.66;5095547;28;19923;-46
2023/07/17 00:38:25;;;;;;;;;;;;;;;25.21;47.19;98983.56;5094436;28;19912;-46
2023/07/17 00:40:50;;;;;;;;;;;;;;;25.09;47.41;98983.94;5095642;28;19926;-46
2023/07/17 00:43:15;;;;;;;;;;;;;;;25.01;47.73;98987.28;5095629;28;20015;-46
2023/07/17 00:45:43;;;;;;;;;;;;;;;24.98;47.87;98982.47;5094287;28;19920;-46
2023/07/17 00:48:09;;;;;;;;;;;;;;;25.06;47.90;98979.13;5094232;28;19912;-46
2023/07/17 00:50:35;;;;;;;;;;;;;;;25.15;47.72;98981.16;5094273;28;20278;-46
2023/07/17 00:53:01;;;;;;;;;;;;;;;25.20;47.42;98965.78;5095415;28;19916;-46
2023/07/17 00:55:26;;;;;;;;;;;;;;;25.15;47.29;98973.13;5095379;28;19919;-46
2023/07/17 00:57:52;;;;;;;;;;;;;;;25.14;47.41;98966.16;5095353;28;19919;-46
2023/07/17 01:00:22;;;;;;;;;;;;;;;25.21;47.40;98961.22;5093982;28;20373;-46
2023/07/17 01:02:50;;;;;;;;;;;;;;;25.22;47.18;98966.31;5093983;28;20396;-46
2023/07/17 01:05:16;;;;;;;;;;;;;;;25.18;47.21;98967.19;5093877;28;19916;-46
2023/07/17 01:07:41;;;;;;;;;;;;;;;25.18;47.14;98967.19;5093883;28;20007;-46
2023/07/17 01:10:08;;;;;;;;;;;;;;;25.20;47.01;98970.38;5076888;28;19944;-46
2023/07/17 01:12:36;;;;;;;;;;;;;;;25.28;47.09;98965.16;5094903;28;20045;-46
2023/07/17 01:15:06;;;;;;;;;;;;;;;25.24;47.02;98964.16;5094954;28;20007;-46
2023/07/17 01:17:32;;;;;;;;;;;;;;;25.12;46.93;98963.75;5093617;28;19912;-46
2023/07/17 01:19:57;;;;;;;;;;;;;;;25.05;47.10;98963.31;5093068;28;19919;-46
2023/07/17 01:22:26;;;;;;;;;;;;;;;24.97;47.07;98961.25;5094331;28;19958;-46
2023/07/17 01:24:52;;;;;;;;;;;;;;;24.92;47.22;98962.94;5093508;28;19961;-46
2023/07/17 01:27:18;;;;;;;;;;;;;;;24.88;47.45;98963.81;5093371;28;19912;-46
2023/07/17 01:29:43;;;;;;;;;;;;;;;24.90;47.43;98961.63;5094992;28;19911;-46
2023/07/17 01:32:08;;;;;;;;;;;;;;;24.96;47.37;98959.69;5094575;28;20279;-46
2023/07/17 01:34:35;;;;;;;;;;;;;;;25.07;47.57;98961.13;5094590;28;20401;-46
2023/07/17 01:37:00;;;;;;;;;;;;;;;25.26;47.42;98961.19;5094436;28;19943;-46
2023/07/17 01:39:25;;;;;;;;;;;;;;;25.38;47.03;98966.13;5094469;28;20385;-46
2023/07/17 01:41:51;;;;;;;;;;;;;;;25.45;46.95;98967.31;5094439;28;20389;-46
2023/07/17 01:44:16;;;;;;;;;;;;;;;25.52;47.21;98973.16;5093200;28;20007;-46
2023/07/17 01:46:42;;;;;;;;;;;;;;;25.56;46.75;98968.00;5093062;28;20404;-46
2023/07/17 01:49:07;;;;;;;;;;;;;;;25.61;46.54;98967.91;5094333;28;20421;-46
2023/07/17 01:51:33;;;;;;;;;;;;;;;25.61;46.48;98973.28;5092902;28;19922;-46
2023/07/17 01:53:58;;;;;;;;;;;;;;;25.43;46.32;98966.81;5094211;28;19918;-46
2023/07/17 01:56:24;;;;;;;;;;;;;;;25.25;46.88;98975.69;5094215;28;19912;-46
2023/07/17 01:58:49;;;;;;;;;;;;;;;25.12;47.10;98969.91;5094189;28;20006;-46
2023/07/17 02:01:15;;;;;;;;;;;;;;;25.08;47.19;98970.78;5094040;28;19916;-46
2023/07/17 02:03:40;;;;;;;;;;;;;;;25.10;47.05;98969.41;5094366;28;20002;-46
2023/07/17 02:06:06;;;;;;;;;;;;;;;25.11;47.28;98964.81;5092653;28;20313;-46
2023/07/17 02:08:32;;;;;;;;;;;;;;;25.09;47.41;98967.00;5093910;28;19912;-46
2023/07/17 02:10:57;;;;;;;;;;;;;;;25.04;47.19;98967.88;5092592;28;19922;-46
2023/07/17 02:13:23;;;;;;;;;;;;;;;25.04;47.25;98961.72;5093789;28;19912;-46
2023/07/17 02:15:48;;;;;;;;;;;;;;;25.05;47.43;98968.66;5094120;28;19915;-46
2023/07/17 02:18:14;;;;;;;;;;;;;;;25.08;47.28;98965.44;5092446;28;20297;-45
2023/07/17 02:20:39;;;;;;;;;;;;;;;25.04;47.24;98970.56;5093744;28;19920;-46
2023/07/17 02:23:04;;;;;;;;;;;;;;;24.91;47.27;98966.72;5093686;28;20401;-46
2023/07/17 02:25:30;;;;;;;;;;;;;;;24.72;47.47;98963.97;5093892;28;19916;-46
2023/07/17 02:27:55;;;;;;;;;;;;;;;24.61;47.82;98970.56;5093604;28;19919;-46
2023/07/17 02:30:21;;;;;;;;;;;;;;;24.62;48.11;98958.72;5093562;28;19912;-46
2023/07/17 02:32:46;;;;;;;;;;;;;;;24.69;47.95;98961.09;5093277;28;19923;-46
2023/07/17 02:35:11;;;;;;;;;;;;;;;24.72;48.17;98960.50;5093446;28;19918;-46
2023/07/17 02:37:37;;;;;;;;;;;;;;;24.99;48.24;98954.53;5093188;28;20003;-46
2023/07/17 02:40:12;;;;;;;;;;;;;;;25.14;47.83;98964.25;5093284;28;19912;-46
2023/07/17 02:42:37;;;;;;;;;;;;;;;25.25;47.82;98965.75;5093538;28;20305;-46
2023/07/17 02:45:03;;;;;;;;;;;;;;;25.34;47.34;98965.09;5093420;28;19922;-46
2023/07/17 02:47:29;;;;;;;;;;;;;;;25.22;47.26;98971.69;5091948;28;19919;-46
2023/07/17 02:49:54;;;;;;;;;;;;;;;25.06;47.30;98975.66;5091974;28;19912;-46
2023/07/17 02:52:19;;;;;;;;;;;;;;;25.06;47.48;98972.97;5091730;28;19961;-46
2023/07/17 02:54:45;;;;;;;;;;;;;;;25.07;47.52;98974.56;5093121;28;19919;-46
2023/07/17 02:57:10;;;;;;;;;;;;;;;25.02;47.38;98978.13;5093023;28;19915;-46
2023/07/17 02:59:36;;;;;;;;;;;;;;;24.94;47.31;98972.59;5092991;28;19969;-46
2023/07/17 03:02:02;;;;;;;;;;;;;;;25.03;47.97;98981.59;5093210;28;19912;-46
2023/07/17 03:04:27;;;;;;;;;;;;;;;25.21;47.75;98972.81;5092913;28;20407;-46
2023/07/17 03:06:53;;;;;;;;;;;;;;;25.33;47.70;98969.66;5092765;28;19916;-46
2023/07/17 03:09:18;;;;;;;;;;;;;;;25.40;47.72;98963.94;5091533;28;19912;-46
2023/07/17 03:11:44;;;;;;;;;;;;;;;24.89;47.55;98973.44;5092695;28;20403;-46
2023/07/17 03:14:09;;;;;;;;;;;;;;;24.62;48.87;98966.78;5092735;28;20148;-46
2023/07/17 03:16:34;;;;;;;;;;;;;;;24.77;49.08;98968.50;5092746;28;19919;-46
2023/07/17 03:19:00;;;;;;;;;;;;;;;24.92;49.51;98968.28;5092677;28;19916;-46
2023/07/17 03:21:25;;;;;;;;;;;;;;;25.12;49.75;98964.53;5091366;28;19916;-46
2023/07/17 03:23:51;;;;;;;;;;;;;;;25.24;49.08;98968.72;5092565;28;19958;-46
2023/07/17 03:26:16;;;;;;;;;;;;;;;24.94;48.78;98962.66;5091261;28;19974;-46
2023/07/17 03:28:42;;;;;;;;;;;;;;;24.82;49.52;98962.25;5091211;28;19912;-46
2023/07/17 03:31:07;;;;;;;;;;;;;;;24.94;49.98;98962.66;5092512;28;20305;-46
2023/07/17 03:33:33;;;;;;;;;;;;;;;24.99;50.18;98965.28;5091093;28;20339;-46
2023/07/17 03:35:58;;;;;;;;;;;;;;;24.95;50.27;98963.44;5092203;28;19981;-47
2023/07/17 03:38:23;;;;;;;;;;;;;;;24.94;50.41;98978.75;5092467;28;19965;-46
2023/07/17 03:40:49;;;;;;;;;;;;;;;25.04;50.02;98978.63;5091042;28;19912;-46
2023/07/17 03:43:14;;;;;;;;;;;;;;;24.99;50.08;98983.25;5091817;28;19912;-45
2023/07/17 03:45:40;;;;;;;;;;;;;;;25.18;50.18;98983.28;5092317;28;20363;-46
2023/07/17 03:48:05;;;;;;;;;;;;;;;25.19;49.34;98990.25;5091273;28;19919;-46
2023/07/17 03:50:31;;;;;;;;;;;;;;;24.94;49.58;98989.50;5092329;28;19912;-46
2023/07/17 03:52:57;;;;;;;;;;;;;;;24.80;49.85;98985.91;5092179;28;19970;-46
2023/07/17 03:55:22;;;;;;;;;;;;;;;24.74;49.84;98992.44;5090938;28;19955;-46
2023/07/17 03:57:48;;;;;;;;;;;;;;;24.75;49.93;98997.53;5092245;28;19919;-46
2023/07/17 04:00:13;;;;;;;;;;;;;;;24.87;49.55;98989.84;5092198;28;19912;-46
2023/07/17 04:02:40;;;;;;;;;;;;;;;24.91;49.32;98985.50;5090880;28;19916;-46
2023/07/17 04:05:06;;;;;;;;;;;;;;;24.90;49.22;98997.31;5092146;28;20308;-46
2023/07/17 04:07:31;;;;;;;;;;;;;;;24.94;49.10;98997.56;5090897;28;19911;-45
2023/07/17 04:09:57;;;;;;;;;;;;;;;25.02;48.83;98988.06;5090792;28;19919;-46
2023/07/17 04:12:22;;;;;;;;;;;;;;;25.14;48.87;98988.44;5092023;28;20400;-46
2023/07/17 04:14:47;;;;;;;;;;;;;;;25.30;48.40;98997.13;5090730;28;19923;-46
2023/07/17 04:17:13;;;;;;;;;;;;;;;25.38;48.21;99003.75;5090718;28;19912;-46
2023/07/17 04:19:38;;;;;;;;;;;;;;;25.31;47.95;99010.28;5092082;28;19916;-46
2023/07/17 04:22:04;;;;;;;;;;;;;;;25.26;47.92;99007.66;5092005;28;19958;-46
2023/07/17 04:24:29;;;;;;;;;;;;;;;25.14;48.04;99009.94;5092006;28;19924;-46
2023/07/17 04:26:55;;;;;;;;;;;;;;;25.11;48.20;99015.84;5092157;28;19919;-46
2023/07/17 04:29:23;;;;;;;;;;;;;;;25.12;48.19;99006.72;5090656;28;20019;-46
2023/07/17 04:31:49;;;;;;;;;;;;;;;25.10;47.74;98998.94;5090508;28;19912;-46
2023/07/17 04:34:14;;;;;;;;;;;;;;;25.04;47.91;99002.78;5090757;28;19965;-46
2023/07/17 04:36:40;;;;;;;;;;;;;;;24.99;48.24;99002.06;5090350;28;19920;-46
2023/07/17 04:39:05;;;;;;;;;;;;;;;24.98;48.32;99008.53;5090729;28;20377;-46
2023/07/17 04:41:31;;;;;;;;;;;;;;;25.14;48.33;99015.28;5091809;28;20297;-46
2023/07/17 04:43:56;;;;;;;;;;;;;;;25.38;47.85;99006.44;5090448;28;20435;-46
2023/07/17 04:46:22;;;;;;;;;;;;;;;25.42;47.57;98996.69;5091802;28;20504;-46
2023/07/17 04:48:47;;;;;;;;;;;;;;;25.49;47.55;98999.81;5090446;28;20403;-46
2023/07/17 04:51:12;;;;;;;;;;;;;;;25.34;47.37;99000.03;5091717;28;20389;-46
2023/07/17 04:53:38;;;;;;;;;;;;;;;24.93;47.97;99009.38;5091673;28;19912;-46
2023/07/17 04:56:03;;;;;;;;;;;;;;;24.68;49.12;99021.22;5091533;28;19919;-46
2023/07/17 04:58:32;;;;;;;;;;;;;;;25.09;49.03;99020.72;5095350;28;20381;-46
2023/07/17 05:01:00;;;;;;;;;;;;;;;25.63;48.14;99024.84;5095223;28;20003;-46
2023/07/17 05:03:29;;;;;;;;;;;;;;;26.07;47.04;99015.59;5095320;28;19965;-46
2023/07/17 05:05:54;;;;;;;;;;;;;;;26.06;46.82;99023.97;5093874;28;19912;-46
2023/07/17 05:08:20;;;;;;;;;;;;;;;26.17;46.87;99029.97;5095368;28;20022;-46
2023/07/17 05:10:53;;;;;;;;;;;;;;;26.29;46.01;99022.22;5093805;28;20365;-46
2023/07/17 05:13:18;;;;;;;;;;;;;;;26.70;45.43;99030.41;5095026;28;19911;-46
2023/07/17 05:15:44;;;;;;;;;;;;;;;26.60;45.21;99029.78;5093721;28;20366;-46
2023/07/17 05:18:09;;;;;;;;;;;;;;;26.72;44.81;99031.97;5095226;28;19916;-46
2023/07/17 05:20:34;;;;;;;;;;;;;;;26.56;44.85;99040.34;5094825;28;20433;-46
2023/07/17 05:23:00;;;;;;;;;;;;;;;26.42;45.03;99043.00;5094874;28;19916;-46
2023/07/17 05:25:25;;;;;;;;;;;;;;;26.62;45.09;99031.09;5093500;28;20366;-46
2023/07/17 05:27:51;;;;;;;;;;;;;;;26.99;43.95;99041.97;5094761;28;20404;-45
2023/07/17 05:30:16;;;;;;;;;;;;;;;26.67;43.96;99055.22;5093414;28;20408;-45
2023/07/17 05:32:42;;;;;;;;;;;;;;;26.78;43.76;99045.03;5094630;28;19912;-46
2023/07/17 05:35:07;;;;;;;;;;;;;;;26.92;43.04;99033.47;5093436;28;19912;-45
2023/07/17 05:37:33;;;;;;;;;;;;;;;27.25;42.52;99044.97;5094476;28;19923;-46
2023/07/17 05:39:58;;;;;;;;;;;;;;;28.49;40.64;99043.69;5094544;28;19923;-46
2023/07/17 05:42:25;;;;;;;;;;;;;;;29.72;38.34;99045.66;5093276;28;19927;-46
2023/07/17 05:44:51;;;;;;;;;;;;;;;30.93;36.33;99049.22;5094438;28;19912;-46
2023/07/17 05:47:16;;;;;;;;;;;;;;;31.05;34.73;99056.66;5094432;28;19999;-46
2023/07/17 05:49:42;;;;;;;;;;;;;;;30.49;35.21;99051.28;5094428;28;19955;-46
2023/07/17 05:52:07;;;;;;;;;;;;;;;30.06;35.59;99055.66;5094281;28;19951;-46
2023/07/17 05:54:33;;;;;;;;;;;;;;;30.34;35.29;99068.84;5093022;28;19912;-46
2023/07/17 05:56:58;;;;;;;;;;;;;;;30.66;34.79;99062.03;5094213;28;19923;-46
2023/07/17 05:59:24;;;;;;;;;;;;;;;30.40;34.62;99066.75;5094466;28;19912;-46
2023/07/17 06:01:49;;;;;;;;;;;;;;;29.71;34.70;99063.00;5092830;28;19912;-46
2023/07/17 06:04:14;;;;;;;;;;;;;;;29.38;35.52;99065.31;5094133;28;19919;-46
2023/07/17 06:06:40;;;;;;;;;;;;;;;29.13;35.18;99067.66;5092317;28;19920;-46
2023/07/17 06:09:06;;;;;;;;;;;;;;;28.71;35.89;99072.56;5092654;28;19923;-46
2023/07/17 06:11:31;;;;;;;;;;;;;;;28.48;36.17;99080.69;5092551;28;19919;-46
2023/07/17 06:13:57;;;;;;;;;;;;;;;28.49;35.81;99089.56;5093878;28;20044;-46
2023/07/17 06:16:22;;;;;;;;;;;;;;;28.36;35.58;99093.19;5093850;28;19943;-46
2023/07/17 06:18:50;;;;;;;;;;;;;;;28.14;35.51;99099.38;5093760;28;20012;-46
2023/07/17 06:21:15;;;;;;;;;;;;;;;27.89;35.40;99096.19;5093754;28;20440;-45
2023/07/17 06:23:41;;;;;;;;;;;;;;;27.89;35.67;99104.28;5093688;28;20010;-46
2023/07/17 06:26:06;;;;;;;;;;;;;;;28.04;35.48;99103.91;5092286;28;19918;-46
2023/07/17 06:28:32;;;;;;;;;;;;;;;28.29;35.33;99097.09;5093565;28;19912;-46
2023/07/17 06:30:58;;;;;;;;;;;;;;;28.24;34.71;99102.63;5092243;28;19912;-46
2023/07/17 06:33:24;;;;;;;;;;;;;;;27.84;34.38;99105.13;5093367;28;19969;-45
2023/07/17 06:35:49;;;;;;;;;;;;;;;27.68;34.95;99099.28;5092158;28;20335;-46
2023/07/17 06:38:15;;;;;;;;;;;;;;;27.87;34.89;99109.19;5093235;28;20451;-46
2023/07/17 06:40:40;;;;;;;;;;;;;;;28.01;34.65;99106.41;5092063;28;19971;-46
2023/07/17 06:43:06;;;;;;;;;;;;;;;28.17;34.93;99101.44;5093379;28;20010;-46
2023/07/17 06:45:31;;;;;;;;;;;;;;;28.37;34.49;99105.56;5091895;28;20373;-46
2023/07/17 06:47:57;;;;;;;;;;;;;;;28.62;33.98;99104.94;5091949;28;19912;-46
2023/07/17 06:50:22;;;;;;;;;;;;;;;29.01;33.80;99106.06;5091860;28;19916;-46
2023/07/17 06:52:47;;;;;;;;;;;;;;;29.30;33.60;99093.94;5092994;28;20042;-46
2023/07/17 06:55:13;;;;;;;;;;;;;;;29.53;33.14;99104.66;5091765;28;19916;-46
2023/07/17 06:57:38;;;;;;;;;;;;;;;29.66;32.40;99101.81;5092960;28;19919;-46
2023/07/17 07:00:07;;;;;;;;;;;;;;;29.67;32.56;99103.38;5092995;28;20006;-46
2023/07/17 07:02:34;;;;;;;;;;;;;;;30.13;31.95;99098.47;5092929;28;19912;-46
2023/07/17 07:04:59;;;;;;;;;;;;;;;30.19;31.48;99096.41;5092967;28;19912;-46
2023/07/17 07:07:24;;;;;;;;;;;;;;;30.28;31.23;99094.47;5091863;28;19918;-46
2023/07/17 07:09:50;;;;;;;;;;;;;;;30.46;31.00;99106.09;5092871;28;20384;-46
2023/07/17 07:12:15;;;;;;;;;;;;;;;30.45;30.92;99104.50;5092769;28;20294;-46
2023/07/17 07:14:41;;;;;;;;;;;;;;;30.45;30.56;99099.88;5092768;28;19919;-46
2023/07/17 07:17:07;;;;;;;;;;;;;;;30.03;31.23;99105.00;5092730;28;19923;-46
2023/07/17 07:19:32;;;;;;;;;;;;;;;29.95;31.41;99111.22;5090607;28;19978;-46
2023/07/17 07:21:58;;;;;;;;;;;;;;;29.97;31.34;99109.00;5091379;28;20355;-46
2023/07/17 07:24:23;;;;;;;;;;;;;;;30.07;31.01;99102.47;5091360;28;19912;-46
2023/07/17 07:26:48;;;;;;;;;;;;;;;30.04;31.16;99101.22;5092762;28;19916;-46
2023/07/17 07:29:14;;;;;;;;;;;;;;;29.96;31.07;99101.19;5092588;28;20300;-46
2023/07/17 07:31:40;;;;;;;;;;;;;;;29.96;31.45;99096.59;5091188;28;19923;-46
2023/07/17 07:34:05;;;;;;;;;;;;;;;30.34;31.00;99089.72;5091239;28;19966;-46
2023/07/17 07:36:31;;;;;;;;;;;;;;;30.76;30.71;99098.84;5092193;28;19973;-46
2023/07/17 07:38:58;;;;;;;;;;;;;;;30.96;29.84;99099.25;5074451;28;19923;-46
2023/07/17 07:41:24;;;;;;;;;;;;;;;31.24;29.86;99094.97;5092418;28;20666;-46
2023/07/17 07:43:50;;;;;;;;;;;;;;;31.54;28.98;99097.69;5092409;28;19923;-46
2023/07/17 07:46:15;;;;;;;;;;;;;;;31.76;28.81;99093.84;5092346;28;19912;-47
2023/07/17 07:48:41;;;;;;;;;;;;;;;31.60;28.66;99101.78;5092314;28;19961;-47
2023/07/17 07:51:06;;;;;;;;;;;;;;;31.55;28.68;99103.91;5091046;28;19923;-46
2023/07/17 07:53:32;;;;;;;;;;;;;;;31.48;29.25;99090.88;5092130;28;19912;-46
2023/07/17 07:55:58;;;;;;;;;;;;;;;31.50;28.69;99090.53;5092269;28;19919;-46
2023/07/17 07:58:23;;;;;;;;;;;;;;;31.88;28.41;99092.34;5092239;28;19957;-46
2023/07/17 08:00:48;;;;;;;;;;;;;;;32.56;27.70;99094.72;5092177;28;19922;-47
2023/07/17 08:03:14;;;;;;;;;;;;;;;33.40;26.76;99088.88;5074078;28;19912;-46
2023/07/17 08:05:39;;;;;;;;;;;;;;;34.35;26.05;99085.75;5092151;28;19991;-46
2023/07/17 08:08:05;;;;;;;;;;;;;;;35.27;24.96;99089.19;5092151;28;19912;-46
2023/07/17 08:10:30;;;;;;;;;;;;;;;36.39;24.30;99086.78;5092128;28;19916;-47
2023/07/17 08:12:57;;;;;;;;;;;;;;;37.28;23.10;99079.22;5092041;28;19923;-46
2023/07/17 08:15:22;;;;;;;;;;;;;;;38.15;22.64;99076.41;5092005;28;19941;-47
2023/07/17 08:17:48;;;;;;;;;;;;;;;39.03;21.49;99085.00;5092130;28;20003;-47
2023/07/17 08:20:13;;;;;;;;;;;;;;;39.33;21.09;99065.56;5092049;28;20006;-47
2023/07/17 08:22:39;;;;;;;;;;;;;;;39.65;20.69;99086.16;5092073;28;19962;-47
2023/07/17 08:25:05;;;;;;;;;;;;;;;39.67;20.58;99070.84;5091982;28;20401;-47
2023/07/17 08:27:30;;;;;;;;;;;;;;;39.18;20.57;99083.16;5091967;28;20378;-47
2023/07/17 08:29:55;;;;;;;;;;;;;;;38.48;21.42;99082.19;5093073;28;19959;-47
2023/07/17 08:32:21;;;;;;;;;;;;;;;38.65;21.45;99078.03;5095840;28;19912;-47
2023/07/17 08:34:46;;;;;;;;;;;;;;;38.55;21.45;99074.03;5094530;28;19965;-47
2023/07/17 08:37:12;;;;;;;;;;;;;;;38.96;21.10;99076.72;5094231;28;19938;-47
2023/07/17 08:39:37;;;;;;;;;;;;;;;39.59;20.66;99072.00;5094361;28;20332;-47
2023/07/17 08:42:03;;;;;;;;;;;;;;;39.21;20.44;99071.38;5094361;28;19912;-48
2023/07/17 08:44:29;;;;;;;;;;;;;;;38.68;20.98;99077.28;5095616;28;19961;-47
2023/07/17 08:46:55;;;;;;;;;;;;;;;37.87;20.80;99092.50;5095572;28;19918;-47
2023/07/17 08:49:21;;;;;;;;;;;;;;;37.21;21.65;99089.28;5095520;28;19919;-46
2023/07/17 08:51:47;;;;;;;;;;;;;;;36.60;22.43;99094.53;5095377;28;19942;-47
2023/07/17 08:54:14;;;;;;;;;;;;;;;36.11;22.73;99090.53;5094151;28;19912;-47
2023/07/17 08:56:41;;;;;;;;;;;;;;;35.77;23.34;99095.72;5094124;28;20010;-47
2023/07/17 08:59:07;;;;;;;;;;;;;;;35.59;23.17;99091.81;5095378;28;20416;-47
2023/07/17 09:01:33;;;;;;;;;;;;;;;35.59;23.78;99094.56;5093915;28;19916;-47
2023/07/17 09:03:58;;;;;;;;;;;;;;;35.92;23.27;99094.09;5093965;28;19911;-47
2023/07/17 09:06:26;;;;;;;;;;;;;;;36.08;23.41;99099.47;5095245;28;19912;-46
2023/07/17 09:08:52;;;;;;;;;;;;;;;35.80;22.98;99105.94;5093892;28;19912;-46
2023/07/17 09:11:18;;;;;;;;;;;;;;;35.69;23.52;99101.41;5095140;28;19957;-46
2023/07/17 09:13:44;;;;;;;;;;;;;;;35.89;23.65;99099.47;5095003;28;19916;-46
2023/07/17 09:16:36;;;;;;;;;;;;;;;35.88;23.10;99097.88;5095047;28;19912;-46
2023/07/17 09:19:01;;;;;;;;;;;;;;;35.32;23.61;99090.88;5092852;28;19916;-46
2023/07/17 09:21:27;;;;;;;;;;;;;;;35.53;23.79;99094.03;5094874;28;19923;-46
2023/07/17 09:23:53;;;;;;;;;;;;;;;35.77;23.90;99103.13;5093627;28;20503;-46
2023/07/17 09:26:20;;;;;;;;;;;;;;;35.70;24.12;99095.59;5094876;28;19916;-47
2023/07/17 09:28:48;;;;;;;;;;;;;;;36.01;23.61;99093.84;5093526;28;19916;-47
2023/07/17 09:31:14;;;;;;;;;;;;;;;36.55;23.20;99098.38;5094983;28;20343;-47
2023/07/17 09:33:40;;;;;;;;;;;;;;;36.72;22.74;99088.91;5094667;28;19918;-47
2023/07/17 09:36:08;;;;;;;;;;;;;;;36.74;22.87;99089.34;5093013;28;19911;-47
2023/07/17 09:38:34;;;;;;;;;;;;;;;37.23;22.79;99086.97;5094679;28;19916;-47
2023/07/17 09:40:59;;;;;;;;;;;;;;;38.08;21.74;99081.81;5094110;28;19911;-47
2023/07/17 09:43:31;;;;;;;;;;;;;;;38.67;21.56;99072.97;5094111;28;19916;-47
2023/07/17 09:46:00;;;;;;;;;;;;;;;39.38;21.21;99078.13;5094446;28;20472;-47
2023/07/17 09:48:30;;;;;;;;;;;;;;;39.42;20.50;99072.69;5093080;28;19912;-47
2023/07/17 09:50:58;;;;;;;;;;;;;;;39.34;20.82;99074.59;5093056;28;19919;-47
2023/07/17 09:53:24;;;;;;;;;;;;;;;39.47;20.59;99084.09;5094264;28;20377;-47
2023/07/17 09:55:51;;;;;;;;;;;;;;;39.30;20.83;99082.81;5092985;28;20049;-47
2023/07/17 09:58:18;;;;;;;;;;;;;;;39.39;21.02;99084.44;5094222;28;19965;-47
2023/07/17 10:00:44;;;;;;;;;;;;;;;40.08;20.36;99086.28;5092888;28;19916;-48
2023/07/17 10:03:10;;;;;;;;;;;;;;;40.99;19.93;99082.41;5094161;28;19916;-47
2023/07/17 10:05:36;;;;;;;;;;;;;;;41.59;19.05;99080.69;5094323;28;19916;-47
2023/07/17 10:08:04;;;;;;;;;;;;;;;42.43;18.75;99077.88;5092771;28;20354;-47
2023/07/17 10:10:29;;;;;;;;;;;;;;;43.09;17.53;99076.13;5093982;28;19912;-48
2023/07/17 10:12:56;;;;;;;;;;;;;;;43.53;17.51;99076.41;5092578;28;19912;-48
2023/07/17 10:15:21;;;;;;;;;;;;;;;43.64;17.23;99066.03;5094000;28;20008;-50
2023/07/17 10:17:54;;;;;;;;;;;;;;;43.01;17.25;99066.34;5093899;28;20393;-50
2023/07/17 10:20:19;;;;;;;;;;;;;;;42.18;18.04;99067.03;5093806;28;19957;-50
2023/07/17 10:22:45;;;;;;;;;;;;;;;42.67;17.82;99061.53;5093780;28;19916;-50
2023/07/17 10:25:17;;;;;;;;;;;;;;;43.48;17.48;99058.31;5093704;28;19999;-50
2023/07/17 10:27:44;;;;;;;;;;;;;;;43.91;17.33;99063.31;5093755;28;19912;-47
2023/07/17 10:30:23;;;;;;;;;;;;;;;43.16;17.50;99056.69;5093685;28;19912;-47
2023/07/17 10:33:06;;;;;;;;;;;;;;;42.58;17.69;99050.97;5092240;28;19961;-47
2023/07/17 10:35:43;;;;;;;;;;;;;;;42.66;17.83;99052.47;5093525;28;19912;-47
2023/07/17 10:38:09;;;;;;;;;;;;;;;43.15;17.49;99051.59;5093344;28;20002;-47
2023/07/17 10:40:35;;;;;;;;;;;;;;;43.66;16.95;99047.81;5093390;28;19982;-47
2023/07/17 10:43:11;;;;;;;;;;;;;;;43.99;16.60;99050.94;5093359;28;19970;-47
2023/07/17 10:45:37;;;;;;;;;;;;;;;44.24;16.58;99039.50;5093263;28;19947;-48
2023/07/17 10:48:03;;;;;;;;;;;;;;;44.25;16.54;99043.84;5093576;28;19916;-48
2023/07/17 10:50:28;;;;;;;;;;;;;;;43.80;17.08;99046.84;5093191;28;19919;-48
2023/07/17 10:52:54;;;;;;;;;;;;;;;43.67;17.25;99040.34;5093092;28;19912;-48
2023/07/17 10:55:19;;;;;;;;;;;;;;;43.44;17.19;99041.78;5093077;28;20544;-48
2023/07/17 10:57:45;;;;;;;;;;;;;;;43.44;17.19;99050.06;5091829;28;20374;-48
2023/07/17 11:00:12;;;;;;;;;;;;;;;43.64;16.99;99047.44;5074785;28;19922;-48
2023/07/17 11:02:37;;;;;;;;;;;;;;;43.71;17.07;99038.31;5091690;28;19912;-48
2023/07/17 11:05:03;;;;;;;;;;;;;;;43.83;16.78;99036.94;5092931;28;20342;-48
2023/07/17 11:07:33;;;;;;;;;;;;;;;43.99;16.66;99041.84;5092878;28;19919;-48
2023/07/17 11:09:59;;;;;;;;;;;;;;;43.88;16.62;99037.25;5092892;28;19912;-48
2023/07/17 11:12:25;;;;;;;;;;;;;;;43.70;16.65;99038.72;5092711;28;19935;-47
2023/07/17 11:14:54;;;;;;;;;;;;;;;43.69;16.72;99032.41;5092829;28;19973;-47
2023/07/17 11:17:20;;;;;;;;;;;;;;;43.67;16.46;99043.88;5093009;28;19916;-48
2023/07/17 11:19:45;;;;;;;;;;;;;;;44.03;16.54;99035.06;5092796;28;20415;-48
2023/07/17 11:22:13;;;;;;;;;;;;;;;44.41;16.66;99034.88;5092648;28;19922;-47
2023/07/17 11:24:38;;;;;;;;;;;;;;;43.88;16.35;99034.50;5091368;28;19934;-47
2023/07/17 11:27:04;;;;;;;;;;;;;;;43.18;17.46;99034.19;5091354;28;20452;-48
2023/07/17 11:29:30;;;;;;;;;;;;;;;43.20;17.51;99029.03;5092590;28;19912;-48
2023/07/17 11:31:59;;;;;;;;;;;;;;;43.16;17.31;99018.03;5092451;28;19912;-47
2023/07/17 11:34:25;;;;;;;;;;;;;;;43.15;16.80;99021.22;5092488;28;19970;-47
2023/07/17 11:36:50;;;;;;;;;;;;;;;43.30;16.83;99028.16;5092191;28;19947;-47
2023/07/17 11:39:31;;;;;;;;;;;;;;;43.36;17.20;99025.72;5092449;28;19912;-47
2023/07/17 11:41:57;;;;;;;;;;;;;;;43.21;17.39;99014.81;5092462;28;20373;-48
2023/07/17 11:44:24;;;;;;;;;;;;;;;43.25;17.27;99018.31;5091042;28;19912;-48
2023/07/17 11:46:54;;;;;;;;;;;;;;;43.34;16.86;99011.53;5092407;28;19916;-48
2023/07/17 11:49:20;;;;;;;;;;;;;;;43.10;17.03;99011.38;5092284;28;19964;-47
2023/07/17 11:51:46;;;;;;;;;;;;;;;43.05;17.54;99009.88;5090953;28;20022;-48
2023/07/17 11:54:11;;;;;;;;;;;;;;;42.68;17.43;99008.69;5092285;28;19916;-48
2023/07/17 11:56:40;;;;;;;;;;;;;;;42.70;17.75;99009.06;5092240;28;19912;-47
2023/07/17 11:59:06;;;;;;;;;;;;;;;42.62;17.80;99009.53;5092244;28;19956;-47
2023/07/17 12:01:33;;;;;;;;;;;;;;;42.31;18.29;99001.88;5092234;28;20413;-48
2023/07/17 12:04:14;;;;;;;;;;;;;;;42.44;18.14;99002.22;5092197;28;19912;-47
2023/07/17 12:06:40;;;;;;;;;;;;;;;42.62;17.64;99001.25;5095065;28;19916;-47
2023/07/17 12:09:06;;;;;;;;;;;;;;;42.39;18.32;98993.56;5095064;28;19958;-47
2023/07/17 12:11:31;;;;;;;;;;;;;;;42.21;18.45;98999.22;5096283;28;19915;-47
2023/07/17 12:13:56;;;;;;;;;;;;;;;42.06;18.04;98993.06;5096265;28;20386;-47
2023/07/17 12:16:22;;;;;;;;;;;;;;;42.28;18.31;98999.97;5094879;28;19916;-47
2023/07/17 12:18:47;;;;;;;;;;;;;;;42.78;17.53;98993.19;5096204;28;20010;-47
2023/07/17 12:21:13;;;;;;;;;;;;;;;42.99;17.31;98992.19;5094792;28;19912;-47
2023/07/17 12:23:38;;;;;;;;;;;;;;;42.89;17.31;98982.06;5096077;28;19912;-47
2023/07/17 12:26:04;;;;;;;;;;;;;;;42.78;17.42;98992.41;5095994;28;19912;-47
2023/07/17 12:28:31;;;;;;;;;;;;;;;42.74;18.01;98981.38;5094674;28;19923;-48
2023/07/17 12:30:57;;;;;;;;;;;;;;;42.31;17.68;98977.06;5095864;28;20385;-48
2023/07/17 12:33:22;;;;;;;;;;;;;;;41.82;17.93;98972.72;5095855;28;19912;-48
2023/07/17 12:35:47;;;;;;;;;;;;;;;41.61;18.13;98974.41;5094506;28;19912;-47
2023/07/17 12:38:13;;;;;;;;;;;;;;;41.31;18.47;98977.69;5095531;28;20289;-48
2023/07/17 12:40:38;;;;;;;;;;;;;;;41.02;19.08;98975.03;5095725;28;20301;-47
2023/07/17 12:43:04;;;;;;;;;;;;;;;41.19;18.85;98967.13;5095703;28;19919;-48